sensor_id;sensor_type;location;lat;lon;timestamp;temperature;humidity
37232;DHT22;23125;48.156;15.954;2023-06-26T00:02:23;19.90;56.40
37232;DHT22;23125;48.156;15.954;2023-06-26T00:04:49;19.90;56.50
37232;DHT22;23125;48.156;15.954;2023-06-26T00:07:19;19.80;56.60
37232;DHT22;23125;48.156;15.954;2023-06-26T00:09:45;19.80;56.70
37232;DHT22;23125;48.156;15.954;2023-06-26T00:12:12;19.80;56.60
37232;DHT22;23125;48.156;15.954;2023-06-26T00:14:37;19.70;56.70
37232;DHT22;23125;48.156;15.954;2023-06-26T00:17:03;19.70;56.80
37232;DHT22;23125;48.156;15.954;2023-06-26T00:19:29;19.60;56.90
37232;DHT22;23125;48.156;15.954;2023-06-26T00:21:55;19.60;57.00
37232;DHT22;23125;48.156;15.954;2023-06-26T00:24:21;19.60;57.10
37232;DHT22;23125;48.156;15.954;2023-06-26T00:26:48;19.60;57.20
37232;DHT22;23125;48.156;15.954;2023-06-26T00:29:13;19.50;57.30
37232;DHT22;23125;48.156;15.954;2023-06-26T00:31:39;19.50;57.30
37232;DHT22;23125;48.156;15.954;2023-06-26T00:34:06;19.50;57.20
37232;DHT22;23125;48.156;15.954;2023-06-26T00:36:32;19.50;57.30
37232;DHT22;23125;48.156;15.954;2023-06-26T00:38:59;19.50;57.30
37232;DHT22;23125;48.156;15.954;2023-06-26T00:41:25;19.50;57.30
37232;DHT22;23125;48.156;15.954;2023-06-26T00:43:51;19.40;57.30
37232;DHT22;23125;48.156;15.954;2023-06-26T00:46:17;19.40;57.40
37232;DHT22;23125;48.156;15.954;2023-06-26T00:48:44;19.40;57.50
37232;DHT22;23125;48.156;15.954;2023-06-26T00:51:11;19.40;57.60
37232;DHT22;23125;48.156;15.954;2023-06-26T00:53:38;19.30;57.50
37232;DHT22;23125;48.156;15.954;2023-06-26T00:56:05;19.30;57.50
37232;DHT22;23125;48.156;15.954;2023-06-26T00:58:31;19.30;57.60
37232;DHT22;23125;48.156;15.954;2023-06-26T01:00:57;19.30;57.70
37232;DHT22;23125;48.156;15.954;2023-06-26T01:03:24;19.30;57.70
37232;DHT22;23125;48.156;15.954;2023-06-26T01:05:55;19.20;57.70
37232;DHT22;23125;48.156;15.954;2023-06-26T01:08:23;19.20;57.80
37232;DHT22;23125;48.156;15.954;2023-06-26T01:10:49;19.20;57.80
37232;DHT22;23125;48.156;15.954;2023-06-26T01:13:16;19.10;57.90
37232;DHT22;23125;48.156;15.954;2023-06-26T01:15:42;19.10;57.80
37232;DHT22;23125;48.156;15.954;2023-06-26T01:18:08;19.10;57.80
37232;DHT22;23125;48.156;15.954;2023-06-26T01:20:37;19.10;57.80
37232;DHT22;23125;48.156;15.954;2023-06-26T01:23:17;19.10;57.90
37232;DHT22;23125;48.156;15.954;2023-06-26T01:28:34;19.00;58.10
37232;DHT22;23125;48.156;15.954;2023-06-26T01:31:02;19.00;58.10
37232;DHT22;23125;48.156;15.954;2023-06-26T01:33:30;19.00;58.20
37232;DHT22;23125;48.156;15.954;2023-06-26T01:35:57;18.90;58.10
37232;DHT22;23125;48.156;15.954;2023-06-26T01:38:22;18.90;58.10
37232;DHT22;23125;48.156;15.954;2023-06-26T01:40:50;18.90;58.10
37232;DHT22;23125;48.156;15.954;2023-06-26T01:46:27;18.80;58.20
37232;DHT22;23125;48.156;15.954;2023-06-26T01:51:38;18.80;58.30
37232;DHT22;23125;48.156;15.954;2023-06-26T01:54:10;18.80;58.40
37232;DHT22;23125;48.156;15.954;2023-06-26T01:56:40;18.80;58.50
37232;DHT22;23125;48.156;15.954;2023-06-26T01:59:09;18.70;58.50
37232;DHT22;23125;48.156;15.954;2023-06-26T02:01:35;18.70;58.50
37232;DHT22;23125;48.156;15.954;2023-06-26T02:04:01;18.70;58.60
37232;DHT22;23125;48.156;15.954;2023-06-26T02:06:27;18.70;58.60
37232;DHT22;23125;48.156;15.954;2023-06-26T02:08:53;18.70;58.60
37232;DHT22;23125;48.156;15.954;2023-06-26T02:11:23;18.60;58.70
37232;DHT22;23125;48.156;15.954;2023-06-26T02:13:49;18.60;58.60
37232;DHT22;23125;48.156;15.954;2023-06-26T02:16:15;18.60;58.70
37232;DHT22;23125;48.156;15.954;2023-06-26T02:18:40;18.60;58.80
37232;DHT22;23125;48.156;15.954;2023-06-26T02:21:07;18.50;58.80
37232;DHT22;23125;48.156;15.954;2023-06-26T02:23:32;18.50;58.80
37232;DHT22;23125;48.156;15.954;2023-06-26T02:25:59;18.50;58.90
37232;DHT22;23125;48.156;15.954;2023-06-26T02:28:25;18.50;59.00
37232;DHT22;23125;48.156;15.954;2023-06-26T02:30:51;18.40;59.00
37232;DHT22;23125;48.156;15.954;2023-06-26T02:33:16;18.40;59.00
37232;DHT22;23125;48.156;15.954;2023-06-26T02:35:42;18.40;58.90
37232;DHT22;23125;48.156;15.954;2023-06-26T02:38:08;18.40;58.90
37232;DHT22;23125;48.156;15.954;2023-06-26T02:40:34;18.40;59.00
37232;DHT22;23125;48.156;15.954;2023-06-26T02:43:00;18.40;59.00
37232;DHT22;23125;48.156;15.954;2023-06-26T02:45:25;18.40;59.00
37232;DHT22;23125;48.156;15.954;2023-06-26T02:47:51;18.40;58.90
37232;DHT22;23125;48.156;15.954;2023-06-26T02:50:17;18.40;59.00
37232;DHT22;23125;48.156;15.954;2023-06-26T02:52:43;18.30;59.10
37232;DHT22;23125;48.156;15.954;2023-06-26T02:55:09;18.30;59.10
37232;DHT22;23125;48.156;15.954;2023-06-26T02:57:34;18.30;59.20
37232;DHT22;23125;48.156;15.954;2023-06-26T03:00:00;18.30;59.30
37232;DHT22;23125;48.156;15.954;2023-06-26T03:02:26;18.30;59.40
37232;DHT22;23125;48.156;15.954;2023-06-26T03:04:52;18.30;59.40
37232;DHT22;23125;48.156;15.954;2023-06-26T03:07:18;18.20;59.40
37232;DHT22;23125;48.156;15.954;2023-06-26T03:09:44;18.20;59.40
37232;DHT22;23125;48.156;15.954;2023-06-26T03:12:10;18.20;59.40
37232;DHT22;23125;48.156;15.954;2023-06-26T03:14:36;18.20;59.50
37232;DHT22;23125;48.156;15.954;2023-06-26T03:17:01;18.20;59.50
37232;DHT22;23125;48.156;15.954;2023-06-26T03:19:29;18.20;59.50
37232;DHT22;23125;48.156;15.954;2023-06-26T03:21:55;18.20;59.60
37232;DHT22;23125;48.156;15.954;2023-06-26T03:24:21;18.20;59.70
37232;DHT22;23125;48.156;15.954;2023-06-26T03:26:47;18.20;59.70
37232;DHT22;23125;48.156;15.954;2023-06-26T03:29:13;18.20;59.80
37232;DHT22;23125;48.156;15.954;2023-06-26T03:31:39;18.20;59.80
37232;DHT22;23125;48.156;15.954;2023-06-26T03:34:05;18.20;59.80
37232;DHT22;23125;48.156;15.954;2023-06-26T03:36:31;18.20;59.80
37232;DHT22;23125;48.156;15.954;2023-06-26T03:38:56;18.20;59.80
37232;DHT22;23125;48.156;15.954;2023-06-26T03:41:23;18.30;60.00
37232;DHT22;23125;48.156;15.954;2023-06-26T03:43:49;18.30;60.00
37232;DHT22;23125;48.156;15.954;2023-06-26T03:46:15;18.30;60.00
37232;DHT22;23125;48.156;15.954;2023-06-26T03:48:41;18.30;60.00
37232;DHT22;23125;48.156;15.954;2023-06-26T03:51:07;18.30;60.10
37232;DHT22;23125;48.156;15.954;2023-06-26T03:53:33;18.30;60.20
37232;DHT22;23125;48.156;15.954;2023-06-26T03:56:00;18.30;60.20
37232;DHT22;23125;48.156;15.954;2023-06-26T03:58:26;18.40;60.30
37232;DHT22;23125;48.156;15.954;2023-06-26T04:00:51;18.40;61.00
37232;DHT22;23125;48.156;15.954;2023-06-26T04:03:17;18.40;60.50
37232;DHT22;23125;48.156;15.954;2023-06-26T04:05:43;18.40;60.50
37232;DHT22;23125;48.156;15.954;2023-06-26T04:08:09;18.40;60.50
37232;DHT22;23125;48.156;15.954;2023-06-26T04:10:35;18.50;60.70
37232;DHT22;23125;48.156;15.954;2023-06-26T04:13:04;18.50;60.70
37232;DHT22;23125;48.156;15.954;2023-06-26T04:15:30;18.60;60.90
37232;DHT22;23125;48.156;15.954;2023-06-26T04:17:56;18.60;60.90
37232;DHT22;23125;48.156;15.954;2023-06-26T04:20:22;18.60;60.90
37232;DHT22;23125;48.156;15.954;2023-06-26T04:22:48;18.70;60.90
37232;DHT22;23125;48.156;15.954;2023-06-26T04:25:14;18.70;61.00
37232;DHT22;23125;48.156;15.954;2023-06-26T04:27:39;18.80;61.20
37232;DHT22;23125;48.156;15.954;2023-06-26T04:30:06;18.80;61.30
37232;DHT22;23125;48.156;15.954;2023-06-26T04:32:32;18.80;61.40
37232;DHT22;23125;48.156;15.954;2023-06-26T04:34:58;18.90;61.50
37232;DHT22;23125;48.156;15.954;2023-06-26T04:37:25;18.90;61.70
37232;DHT22;23125;48.156;15.954;2023-06-26T04:39:51;19.00;61.80
37232;DHT22;23125;48.156;15.954;2023-06-26T04:42:18;19.10;61.90
37232;DHT22;23125;48.156;15.954;2023-06-26T04:44:44;19.10;61.90
37232;DHT22;23125;48.156;15.954;2023-06-26T04:47:10;19.20;61.90
37232;DHT22;23125;48.156;15.954;2023-06-26T04:49:36;19.30;62.00
37232;DHT22;23125;48.156;15.954;2023-06-26T04:52:02;19.30;62.00
37232;DHT22;23125;48.156;15.954;2023-06-26T04:54:28;19.40;62.00
37232;DHT22;23125;48.156;15.954;2023-06-26T04:56:54;19.50;62.10
37232;DHT22;23125;48.156;15.954;2023-06-26T04:59:20;19.50;62.20
37232;DHT22;23125;48.156;15.954;2023-06-26T05:01:46;19.60;62.40
37232;DHT22;23125;48.156;15.954;2023-06-26T05:04:14;19.70;62.50
37232;DHT22;23125;48.156;15.954;2023-06-26T05:06:41;19.80;62.60
37232;DHT22;23125;48.156;15.954;2023-06-26T05:09:07;19.90;63.20
37232;DHT22;23125;48.156;15.954;2023-06-26T05:11:33;20.30;64.90
37232;DHT22;23125;48.156;15.954;2023-06-26T05:13:59;20.80;65.40
37232;DHT22;23125;48.156;15.954;2023-06-26T05:16:25;21.20;65.90
37232;DHT22;23125;48.156;15.954;2023-06-26T05:18:50;21.90;66.60
37232;DHT22;23125;48.156;15.954;2023-06-26T05:21:16;22.60;66.60
37232;DHT22;23125;48.156;15.954;2023-06-26T05:23:42;23.30;65.50
37232;DHT22;23125;48.156;15.954;2023-06-26T05:26:12;23.90;64.30
37232;DHT22;23125;48.156;15.954;2023-06-26T05:28:39;24.50;64.00
37232;DHT22;23125;48.156;15.954;2023-06-26T05:31:05;25.40;64.00
37232;DHT22;23125;48.156;15.954;2023-06-26T05:33:34;26.30;62.90
37232;DHT22;23125;48.156;15.954;2023-06-26T05:36:04;27.20;61.70
37232;DHT22;23125;48.156;15.954;2023-06-26T05:38:31;28.00;60.30
37232;DHT22;23125;48.156;15.954;2023-06-26T05:40:58;28.70;59.00
37232;DHT22;23125;48.156;15.954;2023-06-26T05:43:24;29.40;58.60
37232;DHT22;23125;48.156;15.954;2023-06-26T05:45:50;30.10;56.90
37232;DHT22;23125;48.156;15.954;2023-06-26T05:48:15;30.70;55.60
37232;DHT22;23125;48.156;15.954;2023-06-26T05:50:43;31.30;54.60
37232;DHT22;23125;48.156;15.954;2023-06-26T05:53:10;31.90;53.30
37232;DHT22;23125;48.156;15.954;2023-06-26T05:55:36;32.50;52.10
37232;DHT22;23125;48.156;15.954;2023-06-26T05:58:03;33.00;51.30
37232;DHT22;23125;48.156;15.954;2023-06-26T06:00:29;33.60;50.30
37232;DHT22;23125;48.156;15.954;2023-06-26T06:02:55;34.10;49.00
37232;DHT22;23125;48.156;15.954;2023-06-26T06:05:21;34.50;48.10
37232;DHT22;23125;48.156;15.954;2023-06-26T06:07:48;35.10;47.30
37232;DHT22;23125;48.156;15.954;2023-06-26T06:10:14;35.50;46.00
37232;DHT22;23125;48.156;15.954;2023-06-26T06:12:40;36.00;45.10
37232;DHT22;23125;48.156;15.954;2023-06-26T06:15:06;36.40;44.20
37232;DHT22;23125;48.156;15.954;2023-06-26T06:17:32;36.80;43.50
37232;DHT22;23125;48.156;15.954;2023-06-26T06:19:58;37.30;42.70
37232;DHT22;23125;48.156;15.954;2023-06-26T06:22:24;37.80;41.80
37232;DHT22;23125;48.156;15.954;2023-06-26T06:24:50;38.20;40.90
37232;DHT22;23125;48.156;15.954;2023-06-26T06:27:17;38.60;40.00
37232;DHT22;23125;48.156;15.954;2023-06-26T06:29:43;38.90;38.80
37232;DHT22;23125;48.156;15.954;2023-06-26T06:32:09;39.10;38.00
37232;DHT22;23125;48.156;15.954;2023-06-26T06:34:35;39.40;37.40
37232;DHT22;23125;48.156;15.954;2023-06-26T06:37:02;39.70;36.90
37232;DHT22;23125;48.156;15.954;2023-06-26T06:39:28;40.00;36.20
37232;DHT22;23125;48.156;15.954;2023-06-26T06:41:54;40.40;35.60
37232;DHT22;23125;48.156;15.954;2023-06-26T06:44:20;40.60;34.60
37232;DHT22;23125;48.156;15.954;2023-06-26T06:46:47;40.90;34.00
37232;DHT22;23125;48.156;15.954;2023-06-26T06:49:13;41.20;33.40
37232;DHT22;23125;48.156;15.954;2023-06-26T06:51:39;41.50;32.80
37232;DHT22;23125;48.156;15.954;2023-06-26T06:54:05;41.80;32.20
37232;DHT22;23125;48.156;15.954;2023-06-26T06:56:30;42.10;31.80
37232;DHT22;23125;48.156;15.954;2023-06-26T06:58:56;42.30;31.10
37232;DHT22;23125;48.156;15.954;2023-06-26T07:01:22;42.50;31.20
37232;DHT22;23125;48.156;15.954;2023-06-26T07:03:48;42.70;30.10
37232;DHT22;23125;48.156;15.954;2023-06-26T07:06:14;42.90;29.90
37232;DHT22;23125;48.156;15.954;2023-06-26T07:08:40;43.10;29.60
37232;DHT22;23125;48.156;15.954;2023-06-26T07:11:05;43.20;29.40
37232;DHT22;23125;48.156;15.954;2023-06-26T07:13:31;43.40;29.20
37232;DHT22;23125;48.156;15.954;2023-06-26T07:15:57;43.60;28.80
37232;DHT22;23125;48.156;15.954;2023-06-26T07:18:23;43.80;29.20
37232;DHT22;23125;48.156;15.954;2023-06-26T07:20:49;44.00;28.40
37232;DHT22;23125;48.156;15.954;2023-06-26T07:23:14;44.10;28.00
37232;DHT22;23125;48.156;15.954;2023-06-26T07:25:40;44.30;27.80
37232;DHT22;23125;48.156;15.954;2023-06-26T07:28:13;44.30;27.60
37232;DHT22;23125;48.156;15.954;2023-06-26T07:30:39;44.50;27.40
37232;DHT22;23125;48.156;15.954;2023-06-26T07:33:05;44.60;27.30
37232;DHT22;23125;48.156;15.954;2023-06-26T07:35:31;44.70;27.20
37232;DHT22;23125;48.156;15.954;2023-06-26T07:37:57;44.80;27.00
37232;DHT22;23125;48.156;15.954;2023-06-26T07:40:22;44.90;26.80
37232;DHT22;23125;48.156;15.954;2023-06-26T07:42:48;44.90;26.50
37232;DHT22;23125;48.156;15.954;2023-06-26T07:45:14;45.10;26.30
37232;DHT22;23125;48.156;15.954;2023-06-26T07:47:41;45.10;26.20
37232;DHT22;23125;48.156;15.954;2023-06-26T07:50:07;45.10;26.10
37232;DHT22;23125;48.156;15.954;2023-06-26T07:52:33;45.30;26.10
37232;DHT22;23125;48.156;15.954;2023-06-26T07:54:59;45.30;25.80
37232;DHT22;23125;48.156;15.954;2023-06-26T07:57:25;45.40;25.70
37232;DHT22;23125;48.156;15.954;2023-06-26T07:59:51;45.40;25.50
37232;DHT22;23125;48.156;15.954;2023-06-26T08:02:17;45.50;25.50
37232;DHT22;23125;48.156;15.954;2023-06-26T08:04:43;45.60;25.40
37232;DHT22;23125;48.156;15.954;2023-06-26T08:07:09;45.60;25.20
37232;DHT22;23125;48.156;15.954;2023-06-26T08:09:35;45.60;25.20
37232;DHT22;23125;48.156;15.954;2023-06-26T08:12:01;45.70;25.10
37232;DHT22;23125;48.156;15.954;2023-06-26T08:14:27;45.70;25.10
37232;DHT22;23125;48.156;15.954;2023-06-26T08:16:53;45.80;25.10
37232;DHT22;23125;48.156;15.954;2023-06-26T08:19:19;45.70;24.80
37232;DHT22;23125;48.156;15.954;2023-06-26T08:21:46;45.60;24.70
37232;DHT22;23125;48.156;15.954;2023-06-26T08:24:12;45.60;24.60
37232;DHT22;23125;48.156;15.954;2023-06-26T08:26:38;45.50;24.50
37232;DHT22;23125;48.156;15.954;2023-06-26T08:29:05;45.50;24.60
37232;DHT22;23125;48.156;15.954;2023-06-26T08:31:35;45.50;24.60
37232;DHT22;23125;48.156;15.954;2023-06-26T08:34:02;45.50;24.70
37232;DHT22;23125;48.156;15.954;2023-06-26T08:36:29;45.60;24.80
37232;DHT22;23125;48.156;15.954;2023-06-26T08:38:55;45.60;24.60
37232;DHT22;23125;48.156;15.954;2023-06-26T08:41:21;45.60;24.70
37232;DHT22;23125;48.156;15.954;2023-06-26T08:43:47;45.60;24.80
37232;DHT22;23125;48.156;15.954;2023-06-26T08:46:15;45.80;24.70
37232;DHT22;23125;48.156;15.954;2023-06-26T08:48:45;45.70;24.50
37232;DHT22;23125;48.156;15.954;2023-06-26T08:51:17;45.70;24.50
37232;DHT22;23125;48.156;15.954;2023-06-26T08:53:59;45.70;24.50
37232;DHT22;23125;48.156;15.954;2023-06-26T08:56:34;45.70;24.50
37232;DHT22;23125;48.156;15.954;2023-06-26T08:59:01;45.60;24.40
37232;DHT22;23125;48.156;15.954;2023-06-26T09:01:27;45.70;24.60
37232;DHT22;23125;48.156;15.954;2023-06-26T09:03:54;45.70;24.50
37232;DHT22;23125;48.156;15.954;2023-06-26T09:06:20;45.70;24.50
37232;DHT22;23125;48.156;15.954;2023-06-26T09:08:46;45.70;24.40
37232;DHT22;23125;48.156;15.954;2023-06-26T09:11:12;45.70;24.50
37232;DHT22;23125;48.156;15.954;2023-06-26T09:13:38;45.60;24.40
37232;DHT22;23125;48.156;15.954;2023-06-26T09:16:08;45.60;24.30
37232;DHT22;23125;48.156;15.954;2023-06-26T09:18:34;45.40;24.20
37232;DHT22;23125;48.156;15.954;2023-06-26T09:21:00;45.30;24.20
37232;DHT22;23125;48.156;15.954;2023-06-26T09:23:26;45.30;24.40
37232;DHT22;23125;48.156;15.954;2023-06-26T09:25:52;45.30;24.40
37232;DHT22;23125;48.156;15.954;2023-06-26T09:28:18;45.30;24.40
37232;DHT22;23125;48.156;15.954;2023-06-26T09:30:45;45.30;24.50
37232;DHT22;23125;48.156;15.954;2023-06-26T09:33:17;45.20;24.10
37232;DHT22;23125;48.156;15.954;2023-06-26T09:35:44;45.10;24.30
37232;DHT22;23125;48.156;15.954;2023-06-26T09:38:11;45.10;24.60
37232;DHT22;23125;48.156;15.954;2023-06-26T09:40:39;45.00;24.30
37232;DHT22;23125;48.156;15.954;2023-06-26T09:43:06;44.90;24.30
37232;DHT22;23125;48.156;15.954;2023-06-26T09:45:36;45.00;24.40
37232;DHT22;23125;48.156;15.954;2023-06-26T09:48:03;45.00;24.50
37232;DHT22;23125;48.156;15.954;2023-06-26T09:50:32;45.00;24.40
37232;DHT22;23125;48.156;15.954;2023-06-26T09:53:09;44.90;24.30
37232;DHT22;23125;48.156;15.954;2023-06-26T09:55:36;44.70;23.90
37232;DHT22;23125;48.156;15.954;2023-06-26T09:58:05;44.40;23.90
37232;DHT22;23125;48.156;15.954;2023-06-26T10:00:32;44.00;24.00
37232;DHT22;23125;48.156;15.954;2023-06-26T10:03:01;43.80;24.40
37232;DHT22;23125;48.156;15.954;2023-06-26T10:05:27;43.50;24.50
37232;DHT22;23125;48.156;15.954;2023-06-26T10:07:54;43.20;24.80
37232;DHT22;23125;48.156;15.954;2023-06-26T10:10:23;42.70;24.80
37232;DHT22;23125;48.156;15.954;2023-06-26T10:12:54;42.30;25.00
37232;DHT22;23125;48.156;15.954;2023-06-26T10:15:24;41.90;25.40
37232;DHT22;23125;48.156;15.954;2023-06-26T10:17:52;41.50;25.60
37232;DHT22;23125;48.156;15.954;2023-06-26T10:20:19;41.10;25.90
37232;DHT22;23125;48.156;15.954;2023-06-26T10:22:46;40.80;25.90
37232;DHT22;23125;48.156;15.954;2023-06-26T10:25:19;40.30;26.00
37232;DHT22;23125;48.156;15.954;2023-06-26T10:27:58;39.90;26.30
37232;DHT22;23125;48.156;15.954;2023-06-26T10:30:31;39.60;26.60
37232;DHT22;23125;48.156;15.954;2023-06-26T10:33:00;39.20;27.00
37232;DHT22;23125;48.156;15.954;2023-06-26T10:35:28;38.90;27.10
37232;DHT22;23125;48.156;15.954;2023-06-26T10:38:01;38.60;27.40
37232;DHT22;23125;48.156;15.954;2023-06-26T10:40:46;38.20;27.70
37232;DHT22;23125;48.156;15.954;2023-06-26T10:43:15;37.90;27.90
37232;DHT22;23125;48.156;15.954;2023-06-26T10:45:48;37.70;28.30
37232;DHT22;23125;48.156;15.954;2023-06-26T10:48:21;37.40;28.40
37232;DHT22;23125;48.156;15.954;2023-06-26T10:50:48;37.10;28.50
37232;DHT22;23125;48.156;15.954;2023-06-26T10:53:22;36.80;28.70
37232;DHT22;23125;48.156;15.954;2023-06-26T10:56:05;36.60;29.10
37232;DHT22;23125;48.156;15.954;2023-06-26T10:58:41;36.30;29.20
37232;DHT22;23125;48.156;15.954;2023-06-26T11:03:39;36.00;30.10
37232;DHT22;23125;48.156;15.954;2023-06-26T11:06:14;35.90;30.20
37232;DHT22;23125;48.156;15.954;2023-06-26T11:08:53;35.70;30.40
37232;DHT22;23125;48.156;15.954;2023-06-26T11:11:19;35.60;30.60
37232;DHT22;23125;48.156;15.954;2023-06-26T11:13:48;35.50;30.60
37232;DHT22;23125;48.156;15.954;2023-06-26T11:16:14;35.40;31.50
37232;DHT22;23125;48.156;15.954;2023-06-26T11:18:41;35.30;31.10
37232;DHT22;23125;48.156;15.954;2023-06-26T11:21:12;35.30;31.50
37232;DHT22;23125;48.156;15.954;2023-06-26T11:23:41;35.20;31.60
37232;DHT22;23125;48.156;15.954;2023-06-26T11:26:20;35.20;31.50
37232;DHT22;23125;48.156;15.954;2023-06-26T11:28:56;35.10;31.40
37232;DHT22;23125;48.156;15.954;2023-06-26T11:31:35;35.00;31.60
37232;DHT22;23125;48.156;15.954;2023-06-26T11:34:04;35.00;32.10
37232;DHT22;23125;48.156;15.954;2023-06-26T11:36:31;34.90;32.10
37232;DHT22;23125;48.156;15.954;2023-06-26T11:39:03;34.80;32.30
37232;DHT22;23125;48.156;15.954;2023-06-26T11:41:31;34.80;32.70
37232;DHT22;23125;48.156;15.954;2023-06-26T11:44:05;34.80;32.70
37232;DHT22;23125;48.156;15.954;2023-06-26T11:46:33;34.70;32.80
37232;DHT22;23125;48.156;15.954;2023-06-26T11:48:59;34.70;32.90
37232;DHT22;23125;48.156;15.954;2023-06-26T11:51:28;34.70;32.90
37232;DHT22;23125;48.156;15.954;2023-06-26T11:53:54;34.60;33.10
37232;DHT22;23125;48.156;15.954;2023-06-26T11:56:20;34.60;33.00
37232;DHT22;23125;48.156;15.954;2023-06-26T11:59:02;34.50;33.00
37232;DHT22;23125;48.156;15.954;2023-06-26T12:01:39;34.40;33.10
37232;DHT22;23125;48.156;15.954;2023-06-26T12:04:10;34.30;33.30
37232;DHT22;23125;48.156;15.954;2023-06-26T12:06:39;34.20;32.90
37232;DHT22;23125;48.156;15.954;2023-06-26T12:09:08;34.10;33.40
37232;DHT22;23125;48.156;15.954;2023-06-26T12:11:37;34.10;33.70
37232;DHT22;23125;48.156;15.954;2023-06-26T12:14:05;34.10;33.80
37232;DHT22;23125;48.156;15.954;2023-06-26T12:16:33;34.20;34.10
37232;DHT22;23125;48.156;15.954;2023-06-26T12:19:04;34.20;34.30
37232;DHT22;23125;48.156;15.954;2023-06-26T12:24:21;34.30;34.70
37232;DHT22;23125;48.156;15.954;2023-06-26T12:26:51;34.30;34.00
37232;DHT22;23125;48.156;15.954;2023-06-26T12:29:20;34.40;34.30
37232;DHT22;23125;48.156;15.954;2023-06-26T12:31:51;34.40;34.50
37232;DHT22;23125;48.156;15.954;2023-06-26T12:34:20;34.40;34.30
37232;DHT22;23125;48.156;15.954;2023-06-26T12:36:48;34.40;34.10
37232;DHT22;23125;48.156;15.954;2023-06-26T12:39:21;34.40;33.80
37232;DHT22;23125;48.156;15.954;2023-06-26T12:41:49;34.30;34.10
37232;DHT22;23125;48.156;15.954;2023-06-26T12:44:19;34.30;34.10
37232;DHT22;23125;48.156;15.954;2023-06-26T12:46:55;34.30;34.10
37232;DHT22;23125;48.156;15.954;2023-06-26T12:49:33;34.30;34.00
37232;DHT22;23125;48.156;15.954;2023-06-26T12:52:01;34.20;34.00
37232;DHT22;23125;48.156;15.954;2023-06-26T12:54:28;34.20;33.70
37232;DHT22;23125;48.156;15.954;2023-06-26T12:56:54;34.10;33.80
37232;DHT22;23125;48.156;15.954;2023-06-26T12:59:23;33.90;33.80
37232;DHT22;23125;48.156;15.954;2023-06-26T13:01:49;33.80;33.80
37232;DHT22;23125;48.156;15.954;2023-06-26T13:04:15;33.70;33.90
37232;DHT22;23125;48.156;15.954;2023-06-26T13:06:41;33.70;33.70
37232;DHT22;23125;48.156;15.954;2023-06-26T13:09:07;33.50;33.90
37232;DHT22;23125;48.156;15.954;2023-06-26T13:11:33;33.50;34.20
37232;DHT22;23125;48.156;15.954;2023-06-26T13:14:00;33.40;34.30
37232;DHT22;23125;48.156;15.954;2023-06-26T13:16:26;33.30;34.50
37232;DHT22;23125;48.156;15.954;2023-06-26T13:18:52;33.20;34.40
37232;DHT22;23125;48.156;15.954;2023-06-26T13:21:18;33.20;34.60
37232;DHT22;23125;48.156;15.954;2023-06-26T13:23:44;33.10;34.80
37232;DHT22;23125;48.156;15.954;2023-06-26T13:26:10;33.10;35.00
37232;DHT22;23125;48.156;15.954;2023-06-26T13:28:37;33.00;35.20
37232;DHT22;23125;48.156;15.954;2023-06-26T13:31:04;33.00;35.60
37232;DHT22;23125;48.156;15.954;2023-06-26T13:33:31;33.00;35.50
37232;DHT22;23125;48.156;15.954;2023-06-26T13:35:57;33.00;35.40
37232;DHT22;23125;48.156;15.954;2023-06-26T13:38:24;32.90;35.30
37232;DHT22;23125;48.156;15.954;2023-06-26T13:40:55;32.90;35.40
37232;DHT22;23125;48.156;15.954;2023-06-26T13:43:22;32.90;35.50
37232;DHT22;23125;48.156;15.954;2023-06-26T13:45:49;32.90;35.50
37232;DHT22;23125;48.156;15.954;2023-06-26T13:48:15;32.80;35.20
37232;DHT22;23125;48.156;15.954;2023-06-26T13:50:41;32.80;35.30
37232;DHT22;23125;48.156;15.954;2023-06-26T13:53:07;32.80;35.50
37232;DHT22;23125;48.156;15.954;2023-06-26T13:55:34;32.70;35.50
37232;DHT22;23125;48.156;15.954;2023-06-26T13:58:01;32.70;35.70
37232;DHT22;23125;48.156;15.954;2023-06-26T14:00:31;32.70;35.90
37232;DHT22;23125;48.156;15.954;2023-06-26T14:03:00;32.60;35.70
37232;DHT22;23125;48.156;15.954;2023-06-26T14:05:26;32.60;35.80
37232;DHT22;23125;48.156;15.954;2023-06-26T14:07:52;32.60;36.10
37232;DHT22;23125;48.156;15.954;2023-06-26T14:10:21;32.60;36.10
37232;DHT22;23125;48.156;15.954;2023-06-26T14:12:47;32.60;36.10
37232;DHT22;23125;48.156;15.954;2023-06-26T14:15:12;32.60;36.40
37232;DHT22;23125;48.156;15.954;2023-06-26T14:17:38;32.50;36.70
37232;DHT22;23125;48.156;15.954;2023-06-26T14:20:08;32.50;36.60
37232;DHT22;23125;48.156;15.954;2023-06-26T14:22:42;32.50;36.60
37232;DHT22;23125;48.156;15.954;2023-06-26T14:25:12;32.50;36.50
37232;DHT22;23125;48.156;15.954;2023-06-26T14:27:39;32.50;36.50
37232;DHT22;23125;48.156;15.954;2023-06-26T14:30:06;32.40;36.50
37232;DHT22;23125;48.156;15.954;2023-06-26T14:32:34;32.40;36.60
37232;DHT22;23125;48.156;15.954;2023-06-26T14:35:01;32.40;36.60
37232;DHT22;23125;48.156;15.954;2023-06-26T14:37:30;32.40;36.70
37232;DHT22;23125;48.156;15.954;2023-06-26T14:39:57;32.30;36.70
37232;DHT22;23125;48.156;15.954;2023-06-26T14:42:24;32.30;36.40
37232;DHT22;23125;48.156;15.954;2023-06-26T14:44:51;32.20;36.70
37232;DHT22;23125;48.156;15.954;2023-06-26T14:47:17;32.20;37.00
37232;DHT22;23125;48.156;15.954;2023-06-26T14:49:43;32.20;36.70
37232;DHT22;23125;48.156;15.954;2023-06-26T14:52:09;32.20;37.10
37232;DHT22;23125;48.156;15.954;2023-06-26T14:54:35;32.20;37.10
37232;DHT22;23125;48.156;15.954;2023-06-26T14:57:06;32.20;37.30
37232;DHT22;23125;48.156;15.954;2023-06-26T14:59:33;32.20;37.30
37232;DHT22;23125;48.156;15.954;2023-06-26T15:01:59;32.20;37.60
37232;DHT22;23125;48.156;15.954;2023-06-26T15:04:25;32.20;37.60
37232;DHT22;23125;48.156;15.954;2023-06-26T15:06:52;32.20;37.60
37232;DHT22;23125;48.156;15.954;2023-06-26T15:09:18;32.20;37.70
37232;DHT22;23125;48.156;15.954;2023-06-26T15:11:44;32.20;37.80
37232;DHT22;23125;48.156;15.954;2023-06-26T15:14:10;32.20;37.60
37232;DHT22;23125;48.156;15.954;2023-06-26T15:16:36;32.20;37.40
37232;DHT22;23125;48.156;15.954;2023-06-26T15:19:02;32.20;38.00
37232;DHT22;23125;48.156;15.954;2023-06-26T15:21:28;32.20;37.50
37232;DHT22;23125;48.156;15.954;2023-06-26T15:23:54;32.10;37.20
37232;DHT22;23125;48.156;15.954;2023-06-26T15:26:20;32.10;37.30
37232;DHT22;23125;48.156;15.954;2023-06-26T15:28:45;32.10;37.50
37232;DHT22;23125;48.156;15.954;2023-06-26T15:31:12;32.10;37.40